createdAt,value
2022-07-31T00:00:25.846Z,16.40
2022-07-31T00:02:53.125Z,16.40
2022-07-31T00:05:20.522Z,16.40
2022-07-31T00:07:47.833Z,16.40
2022-07-31T00:10:15.406Z,16.40
2022-07-31T00:12:43.065Z,16.40
2022-07-31T00:15:11.072Z,16.30
2022-07-31T00:17:39.085Z,16.40
2022-07-31T00:20:07.255Z,16.40
2022-07-31T00:22:37.822Z,16.30
2022-07-31T00:25:05.983Z,16.30
2022-07-31T00:27:33.304Z,16.30
2022-07-31T00:30:00.821Z,16.30
2022-07-31T00:32:28.195Z,16.30
2022-07-31T00:34:55.691Z,16.30
2022-07-31T00:37:24.346Z,16.20
2022-07-31T00:39:51.781Z,16.20
2022-07-31T00:42:23.293Z,16.20
2022-07-31T00:44:51.702Z,16.10
2022-07-31T00:47:23.887Z,16.20
2022-07-31T00:49:51.830Z,16.10
2022-07-31T00:52:19.500Z,16.10
2022-07-31T00:54:46.823Z,16.00
2022-07-31T00:57:15.378Z,16.00
2022-07-31T00:59:43.874Z,16.00
2022-07-31T01:02:11.428Z,16.00
2022-07-31T01:04:41.702Z,15.90
2022-07-31T01:07:11.749Z,15.90
2022-07-31T01:09:39.051Z,15.90
2022-07-31T01:12:18.928Z,15.90
2022-07-31T01:14:52.742Z,15.90
2022-07-31T01:17:23.494Z,15.90
2022-07-31T01:19:53.123Z,15.80
2022-07-31T01:22:52.535Z,15.90
2022-07-31T01:25:57.649Z,15.90
2022-07-31T01:29:00.201Z,15.90
2022-07-31T01:31:45.443Z,15.80
2022-07-31T01:34:20.585Z,15.80
2022-07-31T01:37:11.196Z,15.80
2022-07-31T01:39:43.725Z,15.80
2022-07-31T01:42:15.520Z,15.80
2022-07-31T01:44:46.141Z,15.80
2022-07-31T01:47:15.729Z,15.70
2022-07-31T01:49:45.262Z,15.70
2022-07-31T01:52:15.213Z,15.70
2022-07-31T01:54:45.480Z,15.60
2022-07-31T01:57:17.347Z,15.70
2022-07-31T01:59:51.024Z,15.60
2022-07-31T02:02:43.244Z,15.60
2022-07-31T02:05:13.118Z,15.60
2022-07-31T02:07:45.181Z,15.60
2022-07-31T02:10:15.331Z,15.70
2022-07-31T02:12:44.862Z,15.70
2022-07-31T02:15:14.786Z,15.70
2022-07-31T02:17:48.809Z,15.70
2022-07-31T02:20:24.088Z,15.70
2022-07-31T02:22:55.755Z,15.70
2022-07-31T02:25:23.723Z,15.70
2022-07-31T02:27:54.220Z,15.70
2022-07-31T02:30:38.959Z,15.60
2022-07-31T02:33:24.282Z,15.60
2022-07-31T02:35:54.758Z,15.50
2022-07-31T02:38:24.189Z,15.50
2022-07-31T02:40:57.942Z,15.40
2022-07-31T02:43:26.943Z,15.40
2022-07-31T02:45:57.509Z,15.40
2022-07-31T02:48:26.252Z,15.40
2022-07-31T02:50:59.529Z,15.40
2022-07-31T02:53:27.748Z,15.40
2022-07-31T02:56:01.284Z,15.40
2022-07-31T02:58:32.532Z,15.40
2022-07-31T03:01:01.655Z,15.40
2022-07-31T03:03:31.086Z,15.40
2022-07-31T03:05:58.716Z,15.40
2022-07-31T03:08:26.823Z,15.40
2022-07-31T03:10:56.234Z,15.40
2022-07-31T03:13:29.845Z,15.40
2022-07-31T03:15:58.246Z,15.40
2022-07-31T03:18:26.848Z,15.40
2022-07-31T03:20:56.644Z,15.40
2022-07-31T03:23:26.791Z,15.40
2022-07-31T03:26:00.472Z,15.40
2022-07-31T03:28:28.365Z,15.40
2022-07-31T03:30:57.014Z,15.40
2022-07-31T03:33:27.649Z,15.30
2022-07-31T03:35:55.054Z,15.40
2022-07-31T03:38:41.184Z,15.30
2022-07-31T03:41:11.400Z,15.30
2022-07-31T03:43:44.092Z,15.30
2022-07-31T03:46:18.920Z,15.30
2022-07-31T03:48:46.936Z,15.30
2022-07-31T03:51:15.604Z,15.40
2022-07-31T03:53:44.086Z,15.30
2022-07-31T03:56:24.446Z,15.40
2022-07-31T03:58:52.658Z,15.40
2022-07-31T04:01:21.996Z,15.40
2022-07-31T04:03:59.649Z,15.40
2022-07-31T04:06:50.226Z,15.50
2022-07-31T04:09:19.076Z,15.50
2022-07-31T04:11:48.575Z,15.50
2022-07-31T04:14:16.973Z,15.60
2022-07-31T04:16:44.472Z,15.60
2022-07-31T04:19:11.766Z,15.60
2022-07-31T04:21:39.125Z,15.70
2022-07-31T04:24:07.666Z,15.80
2022-07-31T04:27:12.559Z,15.90
2022-07-31T04:29:43.673Z,15.90
2022-07-31T04:32:11.670Z,16.00
2022-07-31T04:34:52.108Z,16.10
2022-07-31T04:37:19.934Z,16.20
2022-07-31T04:39:47.432Z,16.40
2022-07-31T04:42:15.658Z,16.40
2022-07-31T04:44:43.139Z,16.50
2022-07-31T04:47:10.467Z,16.60
2022-07-31T04:49:42.800Z,16.70
2022-07-31T04:52:12.810Z,16.80
2022-07-31T04:54:42.199Z,16.90
2022-07-31T04:57:11.121Z,17.00
2022-07-31T04:59:58.968Z,17.20
2022-07-31T05:02:26.330Z,17.30
2022-07-31T05:04:57.192Z,17.50
2022-07-31T05:07:29.725Z,17.60
2022-07-31T05:09:58.832Z,17.60
2022-07-31T05:12:26.945Z,17.50
2022-07-31T05:14:54.869Z,17.70
2022-07-31T05:17:22.491Z,17.80
2022-07-31T05:20:05.450Z,17.80
2022-07-31T05:22:59.255Z,17.90
2022-07-31T05:25:39.399Z,18.00
2022-07-31T05:28:09.595Z,18.20
2022-07-31T05:30:37.650Z,18.20
2022-07-31T05:33:06.982Z,18.30
2022-07-31T05:35:34.423Z,18.30
2022-07-31T05:38:01.851Z,18.30
2022-07-31T05:40:49.402Z,18.30
2022-07-31T05:43:35.778Z,18.40
2022-07-31T05:46:17.503Z,18.40
2022-07-31T05:48:45.561Z,18.50
2022-07-31T05:51:14.357Z,18.60
2022-07-31T05:53:45.832Z,18.70
2022-07-31T05:56:31.584Z,18.90
2022-07-31T05:59:00.421Z,19.10
2022-07-31T06:01:27.890Z,19.20
2022-07-31T06:03:55.206Z,19.40
2022-07-31T06:06:26.768Z,19.60
2022-07-31T06:08:54.285Z,19.80
2022-07-31T06:11:21.784Z,19.80
2022-07-31T06:13:49.037Z,19.90
2022-07-31T06:16:24.127Z,20.00
2022-07-31T06:18:52.567Z,20.10
2022-07-31T06:23:46.512Z,20.20
2022-07-31T06:26:33.166Z,20.40
2022-07-31T06:29:01.919Z,20.50
2022-07-31T06:31:29.206Z,20.60
2022-07-31T06:33:58.544Z,20.60
2022-07-31T06:36:32.866Z,20.70
2022-07-31T06:39:02.243Z,20.80
2022-07-31T06:41:44.549Z,20.90
2022-07-31T06:44:31.572Z,21.00
2022-07-31T06:47:23.942Z,21.10
2022-07-31T06:50:17.700Z,21.20
2022-07-31T06:52:54.995Z,21.30
2022-07-31T06:55:24.161Z,21.20
2022-07-31T06:57:51.503Z,21.30
2022-07-31T07:00:20.301Z,21.50
2022-07-31T07:02:50.548Z,21.70
2022-07-31T07:05:18.080Z,21.60
2022-07-31T07:07:49.352Z,21.60
2022-07-31T07:10:16.726Z,21.60
2022-07-31T07:12:59.352Z,21.60
2022-07-31T07:15:28.158Z,21.70
2022-07-31T07:17:55.637Z,21.70
2022-07-31T07:20:33.947Z,22.00
2022-07-31T07:23:01.418Z,22.20
2022-07-31T07:25:38.879Z,22.40
2022-07-31T07:28:12.161Z,22.20
2022-07-31T07:30:42.947Z,22.20
2022-07-31T07:33:11.898Z,22.20
2022-07-31T07:35:39.685Z,22.20
2022-07-31T07:38:13.004Z,22.10
2022-07-31T07:40:43.784Z,21.90
2022-07-31T07:43:11.104Z,21.70
2022-07-31T07:45:40.137Z,21.70
2022-07-31T07:48:07.731Z,21.70
2022-07-31T07:51:07.422Z,21.70
2022-07-31T07:53:47.811Z,21.70
2022-07-31T07:56:38.322Z,21.70
2022-07-31T07:59:15.149Z,21.60
2022-07-31T08:02:01.123Z,21.60
2022-07-31T08:04:31.309Z,21.60
2022-07-31T08:07:00.399Z,21.60
2022-07-31T08:09:34.876Z,21.70
2022-07-31T08:12:21.213Z,21.80
2022-07-31T08:15:07.314Z,22.10
2022-07-31T08:17:53.182Z,22.50
2022-07-31T08:20:25.178Z,22.90
2022-07-31T08:22:53.531Z,23.30
2022-07-31T08:25:21.609Z,23.50
2022-07-31T08:27:50.304Z,24.00
2022-07-31T08:30:17.788Z,24.30
2022-07-31T08:32:45.150Z,24.20
2022-07-31T08:35:30.032Z,24.20
2022-07-31T08:38:03.917Z,24.20
2022-07-31T08:40:48.616Z,24.50
2022-07-31T08:44:01.370Z,24.70
2022-07-31T08:46:08.006Z,25.00
2022-07-31T08:48:41.769Z,25.20
2022-07-31T08:51:12.596Z,25.20
2022-07-31T08:54:00.651Z,25.10
2022-07-31T08:56:28.868Z,25.20
2022-07-31T08:58:57.299Z,24.80
2022-07-31T09:01:25.144Z,24.90
2022-07-31T09:03:54.320Z,24.90
2022-07-31T09:06:21.794Z,24.90
2022-07-31T09:08:49.295Z,25.00
2022-07-31T09:11:16.721Z,25.00
2022-07-31T09:14:03.347Z,25.10
2022-07-31T09:17:00.922Z,25.00
2022-07-31T09:19:52.477Z,24.90
2022-07-31T09:22:30.511Z,25.10
2022-07-31T09:25:16.304Z,25.10
2022-07-31T09:27:43.961Z,25.00
2022-07-31T09:30:12.001Z,25.10
2022-07-31T09:32:54.708Z,25.10
2022-07-31T09:35:47.319Z,25.10
2022-07-31T09:38:15.168Z,25.30
2022-07-31T09:41:56.454Z,25.30
2022-07-31T09:44:19.686Z,25.30
2022-07-31T09:46:53.571Z,25.30
2022-07-31T09:49:31.862Z,25.60
2022-07-31T09:52:00.831Z,25.80
2022-07-31T09:54:31.567Z,25.90
2022-07-31T09:57:09.664Z,25.90
2022-07-31T09:59:38.111Z,26.20
2022-07-31T10:02:08.060Z,26.30
2022-07-31T10:04:39.528Z,26.50
2022-07-31T10:07:24.314Z,26.80
2022-07-31T10:10:07.728Z,26.60
2022-07-31T10:13:17.004Z,26.40
2022-07-31T10:15:47.085Z,26.20
2022-07-31T10:18:36.467Z,26.80
2022-07-31T10:21:38.372Z,27.30
2022-07-31T10:24:25.976Z,27.90
2022-07-31T10:27:01.721Z,27.80
2022-07-31T10:29:32.502Z,27.80
2022-07-31T10:32:02.673Z,28.10
2022-07-31T10:34:34.824Z,27.70
2022-07-31T10:37:31.063Z,27.90
2022-07-31T10:40:35.554Z,28.00
2022-07-31T10:43:10.475Z,28.00
2022-07-31T10:45:51.603Z,28.20
2022-07-31T10:48:33.116Z,28.50
2022-07-31T10:51:12.663Z,28.40
2022-07-31T10:54:11.630Z,28.50
2022-07-31T10:57:04.159Z,28.50
2022-07-31T10:59:45.581Z,28.60
2022-07-31T11:02:33.991Z,28.70
2022-07-31T11:05:13.281Z,28.50
2022-07-31T11:08:02.968Z,28.40
2022-07-31T11:10:54.792Z,28.60
2022-07-31T11:14:00.817Z,28.80
2022-07-31T11:17:02.199Z,28.90
2022-07-31T11:19:46.882Z,28.70
2022-07-31T11:22:30.958Z,28.50
2022-07-31T11:25:00.844Z,28.60
2022-07-31T11:27:32.913Z,29.00
2022-07-31T11:30:10.970Z,29.10
2022-07-31T11:32:40.361Z,29.30
2022-07-31T11:35:08.225Z,29.60
2022-07-31T11:37:45.324Z,29.60
2022-07-31T11:40:14.566Z,30.00
2022-07-31T11:42:46.476Z,30.50
2022-07-31T11:45:17.804Z,31.00
2022-07-31T11:48:12.522Z,31.30
2022-07-31T11:50:46.300Z,30.20
2022-07-31T11:53:13.868Z,30.20
2022-07-31T11:56:01.126Z,30.10
2022-07-31T11:58:29.668Z,29.60
2022-07-31T12:00:59.310Z,29.90
2022-07-31T12:03:33.532Z,30.10
2022-07-31T12:06:01.020Z,30.00
2022-07-31T12:08:29.644Z,30.70
2022-07-31T12:10:59.905Z,31.20
2022-07-31T12:13:27.927Z,30.90
2022-07-31T12:16:00.550Z,31.60
2022-07-31T12:18:29.355Z,31.90
2022-07-31T12:21:00.331Z,32.00
2022-07-31T12:23:41.446Z,32.30
2022-07-31T12:26:13.050Z,33.10
2022-07-31T12:28:40.845Z,33.10
2022-07-31T12:31:08.367Z,32.90
2022-07-31T12:33:43.359Z,34.00
2022-07-31T12:36:17.671Z,35.30
2022-07-31T12:38:48.335Z,35.40
2022-07-31T12:41:16.312Z,34.00
2022-07-31T12:43:51.884Z,32.60
2022-07-31T12:46:35.826Z,33.30
2022-07-31T12:49:08.528Z,33.70
2022-07-31T12:51:46.159Z,33.50
2022-07-31T12:54:18.275Z,32.90
2022-07-31T12:56:46.707Z,32.30
2022-07-31T12:59:14.421Z,31.90
2022-07-31T13:01:42.243Z,31.60
2022-07-31T13:04:19.238Z,31.50
2022-07-31T13:06:51.830Z,31.90
2022-07-31T13:09:19.336Z,32.00
2022-07-31T13:11:48.163Z,31.30
2022-07-31T13:14:17.569Z,31.10
2022-07-31T13:16:45.839Z,31.80
2022-07-31T13:19:14.373Z,32.10
2022-07-31T13:21:48.986Z,31.90
2022-07-31T13:24:20.910Z,31.30
2022-07-31T13:26:49.532Z,30.60
2022-07-31T13:29:17.536Z,30.10
2022-07-31T13:31:45.354Z,30.30
2022-07-31T13:34:13.732Z,30.70
2022-07-31T13:36:41.174Z,30.50
2022-07-31T13:39:09.195Z,30.50
2022-07-31T13:41:39.131Z,30.50
2022-07-31T13:44:07.295Z,30.50
2022-07-31T13:46:36.108Z,30.80
2022-07-31T13:49:08.332Z,30.90
2022-07-31T13:51:37.114Z,30.60
2022-07-31T13:54:04.850Z,30.40
2022-07-31T13:56:41.993Z,30.20
2022-07-31T13:59:14.580Z,30.10
2022-07-31T14:02:05.195Z,29.90
2022-07-31T14:04:32.917Z,29.90
2022-07-31T14:07:06.857Z,29.70
2022-07-31T14:09:35.081Z,29.90
2022-07-31T14:12:03.717Z,30.00
2022-07-31T14:14:32.311Z,30.10
2022-07-31T14:16:59.733Z,29.60
2022-07-31T14:19:27.087Z,29.70
2022-07-31T14:21:59.174Z,29.60
2022-07-31T14:24:26.601Z,29.40
2022-07-31T14:26:53.881Z,29.20
2022-07-31T14:29:21.305Z,29.10
2022-07-31T14:31:48.582Z,29.10
2022-07-31T14:34:15.834Z,28.70
2022-07-31T14:36:43.184Z,28.40
2022-07-31T14:39:10.455Z,28.30
2022-07-31T14:41:37.848Z,28.10
2022-07-31T14:44:05.153Z,28.00
2022-07-31T14:46:32.414Z,28.10
2022-07-31T14:49:01.626Z,28.00
2022-07-31T14:51:29.500Z,27.90
2022-07-31T14:53:56.799Z,27.80
2022-07-31T14:56:45.459Z,27.90
2022-07-31T14:59:11.385Z,27.90
2022-07-31T15:01:38.850Z,28.00
2022-07-31T15:04:06.760Z,28.20
2022-07-31T15:06:49.341Z,28.30
2022-07-31T15:09:21.584Z,28.30
2022-07-31T15:12:00.430Z,29.10
2022-07-31T15:14:28.818Z,29.50
2022-07-31T15:16:56.143Z,30.20
2022-07-31T15:19:23.514Z,30.20
2022-07-31T15:22:10.141Z,30.30
2022-07-31T15:24:42.366Z,30.50
2022-07-31T15:27:13.012Z,30.10
2022-07-31T15:30:00.650Z,30.10
2022-07-31T15:32:28.054Z,30.30
2022-07-31T15:34:55.300Z,30.50
2022-07-31T15:37:22.618Z,30.50
2022-07-31T15:40:02.421Z,31.00
2022-07-31T15:42:37.776Z,31.20
2022-07-31T15:45:05.686Z,32.10
2022-07-31T15:47:33.186Z,33.10
2022-07-31T15:50:00.969Z,35.80
2022-07-31T15:52:28.270Z,38.70
2022-07-31T15:54:55.650Z,41.00
2022-07-31T15:57:23.893Z,40.90
2022-07-31T15:59:55.805Z,39.60
2022-07-31T16:02:24.138Z,41.00
2022-07-31T16:04:54.793Z,41.60
2022-07-31T16:08:30.114Z,40.80
2022-07-31T16:10:15.194Z,39.80
2022-07-31T16:12:43.623Z,37.80
2022-07-31T16:15:12.498Z,37.80
2022-07-31T16:17:40.516Z,36.80
2022-07-31T16:20:09.481Z,35.80
2022-07-31T16:22:37.983Z,35.70
2022-07-31T16:25:07.259Z,36.00
2022-07-31T16:27:38.434Z,35.70
2022-07-31T16:30:07.465Z,35.70
2022-07-31T16:32:34.966Z,35.90
2022-07-31T16:35:02.472Z,35.60
2022-07-31T16:37:50.182Z,34.80
2022-07-31T16:40:28.609Z,34.00
2022-07-31T16:43:02.094Z,33.20
2022-07-31T16:45:30.889Z,32.80
2022-07-31T16:47:58.474Z,32.50
2022-07-31T16:50:25.897Z,32.30
2022-07-31T16:52:55.032Z,31.80
2022-07-31T16:55:51.632Z,31.60
2022-07-31T16:58:12.553Z,31.30
2022-07-31T17:00:40.390Z,31.00
2022-07-31T17:03:59.587Z,31.00
2022-07-31T17:05:55.047Z,30.80
2022-07-31T17:08:22.455Z,30.60
2022-07-31T17:10:54.214Z,30.70
2022-07-31T17:13:22.893Z,30.70
2022-07-31T17:15:50.436Z,30.60
2022-07-31T17:18:17.804Z,30.80
2022-07-31T17:20:47.218Z,30.70
2022-07-31T17:23:15.682Z,31.50
2022-07-31T17:25:43.244Z,31.60
2022-07-31T17:28:14.983Z,31.50
2022-07-31T17:30:43.126Z,31.20
2022-07-31T17:33:11.129Z,31.90
2022-07-31T17:35:38.473Z,32.60
2022-07-31T17:38:05.899Z,32.50
2022-07-31T17:40:43.545Z,32.20
2022-07-31T17:43:11.480Z,31.80
2022-07-31T17:46:05.394Z,31.50
2022-07-31T17:48:29.115Z,32.00
2022-07-31T17:50:56.357Z,32.60
2022-07-31T17:53:31.240Z,32.70
2022-07-31T17:56:13.139Z,33.90
2022-07-31T17:58:42.171Z,34.50
2022-07-31T18:01:09.725Z,34.50
2022-07-31T18:03:37.216Z,34.10
2022-07-31T18:06:05.193Z,33.40
2022-07-31T18:08:32.635Z,32.70
2022-07-31T18:10:59.934Z,32.20
2022-07-31T18:13:27.370Z,31.30
2022-07-31T18:15:54.610Z,30.70
2022-07-31T18:18:21.930Z,30.20
2022-07-31T18:20:49.174Z,29.90
2022-07-31T18:23:16.473Z,29.50
2022-07-31T18:25:44.964Z,28.90
2022-07-31T18:28:12.241Z,28.60
2022-07-31T18:30:41.265Z,28.30
2022-07-31T18:33:10.974Z,28.00
2022-07-31T18:35:42.759Z,27.80
2022-07-31T18:38:10.804Z,27.60
2022-07-31T18:40:38.492Z,27.50
2022-07-31T18:43:06.289Z,27.30
2022-07-31T18:45:33.584Z,27.20
2022-07-31T18:48:00.960Z,27.10
2022-07-31T18:50:58.983Z,27.00
2022-07-31T18:53:16.340Z,26.90
2022-07-31T18:55:47.297Z,26.80
2022-07-31T18:58:14.660Z,26.70
2022-07-31T19:00:41.944Z,26.60
2022-07-31T19:03:09.937Z,26.50
2022-07-31T19:05:37.268Z,26.50
2022-07-31T19:08:05.529Z,26.40
2022-07-31T19:10:32.815Z,26.20
2022-07-31T19:13:03.089Z,26.20
2022-07-31T19:15:30.460Z,26.10
2022-07-31T19:18:01.797Z,26.00
2022-07-31T19:20:56.414Z,25.90
2022-07-31T19:23:17.301Z,25.80
2022-07-31T19:26:02.739Z,25.70
2022-07-31T19:28:36.430Z,25.60
2022-07-31T19:31:03.862Z,25.50
2022-07-31T19:33:31.570Z,25.50
2022-07-31T19:36:02.212Z,25.40
2022-07-31T19:38:31.841Z,25.30
2022-07-31T19:40:59.648Z,25.20
2022-07-31T19:43:27.081Z,25.20
2022-07-31T19:46:00.445Z,25.10
2022-07-31T19:48:45.240Z,25.10
2022-07-31T19:51:14.716Z,25.00
2022-07-31T19:53:43.257Z,25.00
2022-07-31T19:56:15.657Z,25.00
2022-07-31T19:58:47.311Z,24.90
2022-07-31T20:01:14.789Z,24.90
2022-07-31T20:03:42.176Z,24.90
2022-07-31T20:06:09.508Z,24.80
2022-07-31T20:08:36.905Z,24.80
2022-07-31T20:11:05.476Z,24.80
2022-07-31T20:13:33.868Z,24.80
2022-07-31T20:16:01.837Z,24.70
2022-07-31T20:18:29.942Z,24.70
2022-07-31T20:21:07.501Z,24.70
2022-07-31T20:23:38.353Z,24.70
2022-07-31T20:26:08.028Z,24.70
2022-07-31T20:28:36.135Z,24.80
2022-07-31T20:31:03.608Z,24.70
2022-07-31T20:33:30.900Z,24.70
2022-07-31T20:35:58.399Z,24.70
2022-07-31T20:38:25.696Z,24.70
2022-07-31T20:40:55.915Z,24.70
2022-07-31T20:43:24.859Z,24.70
2022-07-31T20:45:53.203Z,24.60
2022-07-31T20:48:24.705Z,24.50
2022-07-31T20:50:52.756Z,24.50
2022-07-31T20:53:21.121Z,24.40
2022-07-31T20:55:50.491Z,24.40
2022-07-31T20:58:19.835Z,24.30
2022-07-31T21:00:48.808Z,24.30
2022-07-31T21:03:17.455Z,24.20
2022-07-31T21:05:45.778Z,24.20
2022-07-31T21:08:13.169Z,24.20
2022-07-31T21:10:40.634Z,24.10
2022-07-31T21:13:08.268Z,24.20
2022-07-31T21:15:43.128Z,24.10
2022-07-31T21:18:15.978Z,24.20
2022-07-31T21:20:51.912Z,24.20
2022-07-31T21:23:25.160Z,24.10
2022-07-31T21:25:53.668Z,24.10
2022-07-31T21:28:21.898Z,24.10
2022-07-31T21:30:49.762Z,24.10
2022-07-31T21:33:18.338Z,24.10
2022-07-31T21:35:46.875Z,24.00
2022-07-31T21:38:17.267Z,24.00
2022-07-31T21:40:45.827Z,24.00
2022-07-31T21:43:15.458Z,24.00
2022-07-31T21:45:55.007Z,24.00
2022-07-31T21:48:25.653Z,23.90
2022-07-31T21:50:54.369Z,23.90
2022-07-31T21:53:22.820Z,23.80
2022-07-31T21:55:50.467Z,23.80
2022-07-31T21:58:18.401Z,23.80
2022-07-31T22:00:46.074Z,23.70
2022-07-31T22:03:13.557Z,23.70
2022-07-31T22:05:59.267Z,23.70
2022-07-31T22:08:26.598Z,23.60
2022-07-31T22:10:54.050Z,23.60
2022-07-31T22:13:21.317Z,23.50
2022-07-31T22:15:55.559Z,23.50
2022-07-31T22:18:31.902Z,23.40
2022-07-31T22:21:01.037Z,23.30
2022-07-31T22:23:30.143Z,23.30
2022-07-31T22:25:57.893Z,23.20
2022-07-31T22:28:27.036Z,23.10
2022-07-31T22:30:55.501Z,23.00
2022-07-31T22:33:23.562Z,23.00
2022-07-31T22:35:58.596Z,22.90
2022-07-31T22:38:29.902Z,22.80
2022-07-31T22:41:01.739Z,22.80
2022-07-31T22:44:13.153Z,22.70
2022-07-31T22:46:17.193Z,22.60
2022-07-31T22:48:46.095Z,22.50
2022-07-31T22:51:14.654Z,22.50
2022-07-31T22:53:43.888Z,22.50
2022-07-31T22:56:11.368Z,22.40
2022-07-31T22:58:39.039Z,22.40
2022-07-31T23:01:06.601Z,22.40
2022-07-31T23:03:34.067Z,22.30
2022-07-31T23:06:13.083Z,22.40
2022-07-31T23:08:55.019Z,22.30
2022-07-31T23:11:23.607Z,22.30
2022-07-31T23:13:51.943Z,22.30
2022-07-31T23:16:20.675Z,22.30
2022-07-31T23:18:48.958Z,22.30
2022-07-31T23:21:17.071Z,22.20
2022-07-31T23:23:49.303Z,22.10
2022-07-31T23:26:19.281Z,22.10
2022-07-31T23:28:47.404Z,22.00
2022-07-31T23:31:15.345Z,22.00
2022-07-31T23:33:42.711Z,21.90
2022-07-31T23:36:10.688Z,21.90
2022-07-31T23:38:38.714Z,21.90
2022-07-31T23:41:06.577Z,21.80
2022-07-31T23:43:34.146Z,21.70
2022-07-31T23:46:01.849Z,21.60
2022-07-31T23:48:30.156Z,21.50
2022-07-31T23:50:58.256Z,21.50
2022-07-31T23:53:25.657Z,21.40
2022-07-31T23:55:52.946Z,21.40
2022-07-31T23:58:20.488Z,21.40
